sensor_id;sensor_type;location;lat;lon;timestamp;P1;durP1;ratioP1;P2;durP2;ratioP2
3355;SDS011;1691;52.486;13.374;2023-04-20T00:00:18;8.77;;;7.97;;
3355;SDS011;1691;52.486;13.374;2023-04-20T00:02:47;10.00;;;7.87;;
3355;SDS011;1691;52.486;13.374;2023-04-20T00:05:14;8.00;;;7.27;;
3355;SDS011;1691;52.486;13.374;2023-04-20T00:07:41;8.10;;;7.50;;
3355;SDS011;1691;52.486;13.374;2023-04-20T00:10:09;8.17;;;7.70;;
3355;SDS011;1691;52.486;13.374;2023-04-20T00:12:37;8.07;;;7.57;;
3355;SDS011;1691;52.486;13.374;2023-04-20T00:15:05;8.23;;;7.63;;
3355;SDS011;1691;52.486;13.374;2023-04-20T00:17:35;8.23;;;7.73;;
3355;SDS011;1691;52.486;13.374;2023-04-20T00:20:05;9.10;;;8.27;;
3355;SDS011;1691;52.486;13.374;2023-04-20T00:22:35;8.97;;;8.10;;
3355;SDS011;1691;52.486;13.374;2023-04-20T00:25:03;7.97;;;7.37;;
3355;SDS011;1691;52.486;13.374;2023-04-20T00:27:32;9.70;;;7.17;;
3355;SDS011;1691;52.486;13.374;2023-04-20T00:30:00;7.63;;;6.93;;
3355;SDS011;1691;52.486;13.374;2023-04-20T00:32:28;7.87;;;7.27;;
3355;SDS011;1691;52.486;13.374;2023-04-20T00:34:56;7.60;;;7.00;;
3355;SDS011;1691;52.486;13.374;2023-04-20T00:37:24;8.00;;;7.40;;
3355;SDS011;1691;52.486;13.374;2023-04-20T00:39:52;7.40;;;6.93;;
3355;SDS011;1691;52.486;13.374;2023-04-20T00:42:21;9.37;;;7.27;;
3355;SDS011;1691;52.486;13.374;2023-04-20T00:44:49;8.10;;;7.40;;
3355;SDS011;1691;52.486;13.374;2023-04-20T00:47:17;8.20;;;7.40;;
3355;SDS011;1691;52.486;13.374;2023-04-20T00:49:45;7.47;;;6.93;;
3355;SDS011;1691;52.486;13.374;2023-04-20T00:52:12;7.97;;;7.37;;
3355;SDS011;1691;52.486;13.374;2023-04-20T00:54:40;8.73;;;7.87;;
3355;SDS011;1691;52.486;13.374;2023-04-20T00:57:07;8.20;;;7.47;;
3355;SDS011;1691;52.486;13.374;2023-04-20T00:59:41;8.20;;;7.50;;
3355;SDS011;1691;52.486;13.374;2023-04-20T01:02:08;7.37;;;6.67;;
3355;SDS011;1691;52.486;13.374;2023-04-20T01:04:35;7.93;;;7.23;;
3355;SDS011;1691;52.486;13.374;2023-04-20T01:07:03;7.07;;;6.53;;
3355;SDS011;1691;52.486;13.374;2023-04-20T01:09:30;7.47;;;6.60;;
3355;SDS011;1691;52.486;13.374;2023-04-20T01:11:57;6.93;;;6.37;;
3355;SDS011;1691;52.486;13.374;2023-04-20T01:14:23;7.97;;;7.20;;
3355;SDS011;1691;52.486;13.374;2023-04-20T01:16:50;8.37;;;6.70;;
3355;SDS011;1691;52.486;13.374;2023-04-20T01:19:17;7.70;;;7.17;;
3355;SDS011;1691;52.486;13.374;2023-04-20T01:21:45;7.60;;;7.00;;
3355;SDS011;1691;52.486;13.374;2023-04-20T01:24:13;8.60;;;7.97;;
3355;SDS011;1691;52.486;13.374;2023-04-20T01:26:40;7.50;;;6.87;;
3355;SDS011;1691;52.486;13.374;2023-04-20T01:29:07;9.00;;;8.17;;
3355;SDS011;1691;52.486;13.374;2023-04-20T01:31:33;8.20;;;7.20;;
3355;SDS011;1691;52.486;13.374;2023-04-20T01:34:00;8.63;;;7.67;;
3355;SDS011;1691;52.486;13.374;2023-04-20T01:36:27;8.47;;;7.70;;
3355;SDS011;1691;52.486;13.374;2023-04-20T01:38:54;9.07;;;8.17;;
3355;SDS011;1691;52.486;13.374;2023-04-20T01:41:21;8.93;;;8.23;;
3355;SDS011;1691;52.486;13.374;2023-04-20T01:43:49;9.17;;;8.47;;
3355;SDS011;1691;52.486;13.374;2023-04-20T01:46:16;9.20;;;8.40;;
3355;SDS011;1691;52.486;13.374;2023-04-20T01:48:43;9.70;;;8.60;;
3355;SDS011;1691;52.486;13.374;2023-04-20T01:51:10;8.53;;;7.83;;
3355;SDS011;1691;52.486;13.374;2023-04-20T01:53:37;9.53;;;8.77;;
3355;SDS011;1691;52.486;13.374;2023-04-20T01:56:04;13.00;;;9.43;;
3355;SDS011;1691;52.486;13.374;2023-04-20T01:58:32;11.10;;;10.07;;
3355;SDS011;1691;52.486;13.374;2023-04-20T02:01:00;11.30;;;10.20;;
3355;SDS011;1691;52.486;13.374;2023-04-20T02:03:27;10.97;;;9.83;;
3355;SDS011;1691;52.486;13.374;2023-04-20T02:05:55;10.47;;;9.50;;
3355;SDS011;1691;52.486;13.374;2023-04-20T02:08:22;11.57;;;9.40;;
3355;SDS011;1691;52.486;13.374;2023-04-20T02:10:49;9.90;;;9.00;;
3355;SDS011;1691;52.486;13.374;2023-04-20T02:13:15;10.37;;;9.37;;
3355;SDS011;1691;52.486;13.374;2023-04-20T02:15:43;11.67;;;10.57;;
3355;SDS011;1691;52.486;13.374;2023-04-20T02:18:10;10.00;;;9.07;;
3355;SDS011;1691;52.486;13.374;2023-04-20T02:20:37;11.47;;;10.27;;
3355;SDS011;1691;52.486;13.374;2023-04-20T02:23:04;10.57;;;9.57;;
3355;SDS011;1691;52.486;13.374;2023-04-20T02:25:31;15.10;;;10.50;;
3355;SDS011;1691;52.486;13.374;2023-04-20T02:27:58;10.27;;;9.30;;
3355;SDS011;1691;52.486;13.374;2023-04-20T02:30:25;12.23;;;10.23;;
3355;SDS011;1691;52.486;13.374;2023-04-20T02:32:52;10.13;;;9.00;;
3355;SDS011;1691;52.486;13.374;2023-04-20T02:35:19;13.67;;;10.50;;
3355;SDS011;1691;52.486;13.374;2023-04-20T02:37:46;9.57;;;8.67;;
3355;SDS011;1691;52.486;13.374;2023-04-20T02:40:14;9.97;;;9.27;;
3355;SDS011;1691;52.486;13.374;2023-04-20T02:42:41;10.63;;;9.63;;
3355;SDS011;1691;52.486;13.374;2023-04-20T02:45:08;11.43;;;10.43;;
3355;SDS011;1691;52.486;13.374;2023-04-20T02:47:36;12.00;;;10.70;;
3355;SDS011;1691;52.486;13.374;2023-04-20T02:50:03;11.80;;;10.70;;
3355;SDS011;1691;52.486;13.374;2023-04-20T02:52:31;10.70;;;9.77;;
3355;SDS011;1691;52.486;13.374;2023-04-20T02:54:58;11.00;;;10.07;;
3355;SDS011;1691;52.486;13.374;2023-04-20T02:57:25;14.40;;;9.97;;
3355;SDS011;1691;52.486;13.374;2023-04-20T02:59:52;12.40;;;11.10;;
3355;SDS011;1691;52.486;13.374;2023-04-20T03:02:19;12.00;;;10.80;;
3355;SDS011;1691;52.486;13.374;2023-04-20T03:04:46;12.50;;;11.30;;
3355;SDS011;1691;52.486;13.374;2023-04-20T03:07:14;15.50;;;11.43;;
3355;SDS011;1691;52.486;13.374;2023-04-20T03:09:43;12.13;;;10.93;;
3355;SDS011;1691;52.486;13.374;2023-04-20T03:12:10;12.30;;;11.20;;
3355;SDS011;1691;52.486;13.374;2023-04-20T03:14:36;14.40;;;11.60;;
3355;SDS011;1691;52.486;13.374;2023-04-20T03:17:03;12.83;;;11.43;;
3355;SDS011;1691;52.486;13.374;2023-04-20T03:19:30;12.87;;;11.70;;
3355;SDS011;1691;52.486;13.374;2023-04-20T03:21:57;13.97;;;11.63;;
3355;SDS011;1691;52.486;13.374;2023-04-20T03:24:24;15.03;;;11.03;;
3355;SDS011;1691;52.486;13.374;2023-04-20T03:26:51;16.23;;;11.67;;
3355;SDS011;1691;52.486;13.374;2023-04-20T03:29:18;12.13;;;10.83;;
3355;SDS011;1691;52.486;13.374;2023-04-20T03:31:45;15.07;;;13.40;;
3355;SDS011;1691;52.486;13.374;2023-04-20T03:34:12;13.57;;;12.17;;
3355;SDS011;1691;52.486;13.374;2023-04-20T03:36:39;13.43;;;11.97;;
3355;SDS011;1691;52.486;13.374;2023-04-20T03:39:06;13.70;;;12.33;;
3355;SDS011;1691;52.486;13.374;2023-04-20T03:41:33;16.40;;;12.57;;
3355;SDS011;1691;52.486;13.374;2023-04-20T03:44:00;18.67;;;12.90;;
3355;SDS011;1691;52.486;13.374;2023-04-20T03:46:27;13.90;;;12.40;;
3355;SDS011;1691;52.486;13.374;2023-04-20T03:48:54;13.93;;;12.53;;
3355;SDS011;1691;52.486;13.374;2023-04-20T03:51:21;18.13;;;13.47;;
3355;SDS011;1691;52.486;13.374;2023-04-20T03:53:48;15.20;;;13.43;;
3355;SDS011;1691;52.486;13.374;2023-04-20T03:56:16;16.00;;;11.90;;
3355;SDS011;1691;52.486;13.374;2023-04-20T03:58:43;13.40;;;12.10;;
3355;SDS011;1691;52.486;13.374;2023-04-20T04:01:10;14.57;;;13.07;;
3355;SDS011;1691;52.486;13.374;2023-04-20T04:03:38;18.30;;;13.07;;
3355;SDS011;1691;52.486;13.374;2023-04-20T04:06:06;14.50;;;12.73;;
3355;SDS011;1691;52.486;13.374;2023-04-20T04:08:35;14.40;;;12.20;;
3355;SDS011;1691;52.486;13.374;2023-04-20T04:11:02;13.67;;;12.27;;
3355;SDS011;1691;52.486;13.374;2023-04-20T04:13:29;13.83;;;12.40;;
3355;SDS011;1691;52.486;13.374;2023-04-20T04:15:59;15.80;;;13.60;;
3355;SDS011;1691;52.486;13.374;2023-04-20T04:18:26;17.30;;;13.33;;
3355;SDS011;1691;52.486;13.374;2023-04-20T04:20:58;15.70;;;13.07;;
3355;SDS011;1691;52.486;13.374;2023-04-20T04:23:25;16.10;;;12.30;;
3355;SDS011;1691;52.486;13.374;2023-04-20T04:25:52;17.10;;;13.87;;
3355;SDS011;1691;52.486;13.374;2023-04-20T04:28:19;17.20;;;13.43;;
3355;SDS011;1691;52.486;13.374;2023-04-20T04:30:46;17.17;;;13.90;;
3355;SDS011;1691;52.486;13.374;2023-04-20T04:33:13;17.83;;;13.33;;
3355;SDS011;1691;52.486;13.374;2023-04-20T04:35:40;17.30;;;12.80;;
3355;SDS011;1691;52.486;13.374;2023-04-20T04:38:10;16.30;;;13.53;;
3355;SDS011;1691;52.486;13.374;2023-04-20T04:40:39;16.60;;;13.10;;
3355;SDS011;1691;52.486;13.374;2023-04-20T04:43:07;15.03;;;11.80;;
3355;SDS011;1691;52.486;13.374;2023-04-20T04:45:37;12.87;;;11.27;;
3355;SDS011;1691;52.486;13.374;2023-04-20T04:48:06;15.70;;;12.87;;
3355;SDS011;1691;52.486;13.374;2023-04-20T04:50:37;17.47;;;12.60;;
3355;SDS011;1691;52.486;13.374;2023-04-20T04:53:05;16.50;;;12.37;;
3355;SDS011;1691;52.486;13.374;2023-04-20T04:55:32;14.50;;;12.57;;
3355;SDS011;1691;52.486;13.374;2023-04-20T04:57:59;13.40;;;12.00;;
3355;SDS011;1691;52.486;13.374;2023-04-20T05:00:26;19.00;;;13.30;;
3355;SDS011;1691;52.486;13.374;2023-04-20T05:02:54;14.80;;;13.20;;
3355;SDS011;1691;52.486;13.374;2023-04-20T05:05:22;18.70;;;13.37;;
3355;SDS011;1691;52.486;13.374;2023-04-20T05:07:50;20.03;;;13.07;;
3355;SDS011;1691;52.486;13.374;2023-04-20T05:10:17;15.40;;;13.20;;
3355;SDS011;1691;52.486;13.374;2023-04-20T05:12:44;15.03;;;11.80;;
3355;SDS011;1691;52.486;13.374;2023-04-20T05:15:12;17.87;;;13.70;;
3355;SDS011;1691;52.486;13.374;2023-04-20T05:17:39;17.43;;;13.10;;
3355;SDS011;1691;52.486;13.374;2023-04-20T05:20:06;20.70;;;14.67;;
3355;SDS011;1691;52.486;13.374;2023-04-20T05:22:35;16.77;;;13.60;;
3355;SDS011;1691;52.486;13.374;2023-04-20T05:25:03;15.90;;;12.77;;
3355;SDS011;1691;52.486;13.374;2023-04-20T05:27:32;17.33;;;13.13;;
3355;SDS011;1691;52.486;13.374;2023-04-20T05:29:59;14.37;;;12.47;;
3355;SDS011;1691;52.486;13.374;2023-04-20T05:32:45;15.67;;;13.07;;
3355;SDS011;1691;52.486;13.374;2023-04-20T05:35:16;14.07;;;12.57;;
3355;SDS011;1691;52.486;13.374;2023-04-20T05:37:43;17.03;;;13.20;;
3355;SDS011;1691;52.486;13.374;2023-04-20T05:40:13;18.70;;;13.33;;
3355;SDS011;1691;52.486;13.374;2023-04-20T05:42:40;18.37;;;13.63;;
3355;SDS011;1691;52.486;13.374;2023-04-20T05:45:08;17.03;;;13.13;;
3355;SDS011;1691;52.486;13.374;2023-04-20T05:47:36;18.33;;;13.67;;
3355;SDS011;1691;52.486;13.374;2023-04-20T05:50:03;19.07;;;13.83;;
3355;SDS011;1691;52.486;13.374;2023-04-20T05:52:31;17.73;;;13.17;;
3355;SDS011;1691;52.486;13.374;2023-04-20T05:54:58;17.13;;;13.03;;
3355;SDS011;1691;52.486;13.374;2023-04-20T05:57:25;14.77;;;12.70;;
3355;SDS011;1691;52.486;13.374;2023-04-20T05:59:52;21.73;;;14.00;;
3355;SDS011;1691;52.486;13.374;2023-04-20T06:02:21;19.00;;;14.40;;
3355;SDS011;1691;52.486;13.374;2023-04-20T06:04:48;17.20;;;13.63;;
3355;SDS011;1691;52.486;13.374;2023-04-20T06:07:15;18.40;;;12.57;;
3355;SDS011;1691;52.486;13.374;2023-04-20T06:09:42;16.03;;;13.67;;
3355;SDS011;1691;52.486;13.374;2023-04-20T06:12:09;21.90;;;14.43;;
3355;SDS011;1691;52.486;13.374;2023-04-20T06:14:36;17.60;;;14.07;;
3355;SDS011;1691;52.486;13.374;2023-04-20T06:17:03;17.60;;;14.60;;
3355;SDS011;1691;52.486;13.374;2023-04-20T06:19:31;19.10;;;14.70;;
3355;SDS011;1691;52.486;13.374;2023-04-20T06:21:58;20.70;;;15.00;;
3355;SDS011;1691;52.486;13.374;2023-04-20T06:24:26;22.37;;;14.80;;
3355;SDS011;1691;52.486;13.374;2023-04-20T06:26:53;22.87;;;14.33;;
3355;SDS011;1691;52.486;13.374;2023-04-20T06:29:20;20.50;;;14.83;;
3355;SDS011;1691;52.486;13.374;2023-04-20T06:31:47;24.80;;;14.77;;
3355;SDS011;1691;52.486;13.374;2023-04-20T06:34:14;23.00;;;14.70;;
3355;SDS011;1691;52.486;13.374;2023-04-20T06:36:41;20.27;;;15.50;;
3355;SDS011;1691;52.486;13.374;2023-04-20T06:39:09;18.93;;;14.20;;
3355;SDS011;1691;52.486;13.374;2023-04-20T06:41:39;20.10;;;16.03;;
3355;SDS011;1691;52.486;13.374;2023-04-20T06:44:06;23.93;;;14.73;;
3355;SDS011;1691;52.486;13.374;2023-04-20T06:46:33;19.67;;;15.30;;
3355;SDS011;1691;52.486;13.374;2023-04-20T06:49:00;19.40;;;13.87;;
3355;SDS011;1691;52.486;13.374;2023-04-20T06:51:28;23.83;;;15.10;;
3355;SDS011;1691;52.486;13.374;2023-04-20T06:53:57;21.00;;;13.67;;
3355;SDS011;1691;52.486;13.374;2023-04-20T06:56:24;17.27;;;14.77;;
3355;SDS011;1691;52.486;13.374;2023-04-20T06:58:51;21.20;;;14.50;;
3355;SDS011;1691;52.486;13.374;2023-04-20T07:01:18;17.47;;;13.40;;
3355;SDS011;1691;52.486;13.374;2023-04-20T07:03:45;16.87;;;13.33;;
3355;SDS011;1691;52.486;13.374;2023-04-20T07:06:12;16.73;;;13.00;;
3355;SDS011;1691;52.486;13.374;2023-04-20T07:08:42;15.93;;;13.13;;
3355;SDS011;1691;52.486;13.374;2023-04-20T07:11:09;18.33;;;14.53;;
3355;SDS011;1691;52.486;13.374;2023-04-20T07:13:36;15.00;;;13.30;;
3355;SDS011;1691;52.486;13.374;2023-04-20T07:16:03;13.50;;;11.87;;
3355;SDS011;1691;52.486;13.374;2023-04-20T07:18:30;15.60;;;12.37;;
3355;SDS011;1691;52.486;13.374;2023-04-20T07:21:00;16.10;;;13.43;;
3355;SDS011;1691;52.486;13.374;2023-04-20T07:23:27;24.63;;;13.90;;
3355;SDS011;1691;52.486;13.374;2023-04-20T07:25:54;18.90;;;13.37;;
3355;SDS011;1691;52.486;13.374;2023-04-20T07:28:21;19.47;;;13.23;;
3355;SDS011;1691;52.486;13.374;2023-04-20T07:30:48;32.63;;;13.90;;
3355;SDS011;1691;52.486;13.374;2023-04-20T07:33:15;16.70;;;14.90;;
3355;SDS011;1691;52.486;13.374;2023-04-20T07:35:41;23.50;;;13.67;;
3355;SDS011;1691;52.486;13.374;2023-04-20T07:38:09;17.30;;;14.30;;
3355;SDS011;1691;52.486;13.374;2023-04-20T07:40:36;17.53;;;13.40;;
3355;SDS011;1691;52.486;13.374;2023-04-20T07:43:03;16.63;;;14.00;;
3355;SDS011;1691;52.486;13.374;2023-04-20T07:45:30;23.30;;;13.03;;
3355;SDS011;1691;52.486;13.374;2023-04-20T07:47:57;21.97;;;13.87;;
3355;SDS011;1691;52.486;13.374;2023-04-20T07:50:26;17.60;;;13.30;;
3355;SDS011;1691;52.486;13.374;2023-04-20T07:52:53;13.30;;;11.00;;
3355;SDS011;1691;52.486;13.374;2023-04-20T07:55:20;13.83;;;12.40;;
3355;SDS011;1691;52.486;13.374;2023-04-20T07:57:47;12.03;;;10.90;;
3355;SDS011;1691;52.486;13.374;2023-04-20T08:00:15;13.00;;;11.70;;
3355;SDS011;1691;52.486;13.374;2023-04-20T08:02:43;20.10;;;12.50;;
3355;SDS011;1691;52.486;13.374;2023-04-20T08:05:10;21.60;;;13.60;;
3355;SDS011;1691;52.486;13.374;2023-04-20T08:07:38;14.63;;;12.83;;
3355;SDS011;1691;52.486;13.374;2023-04-20T08:10:06;20.07;;;12.10;;
3355;SDS011;1691;52.486;13.374;2023-04-20T08:12:33;13.37;;;11.83;;
3355;SDS011;1691;52.486;13.374;2023-04-20T08:15:01;14.93;;;12.30;;
3355;SDS011;1691;52.486;13.374;2023-04-20T08:17:31;15.50;;;13.37;;
3355;SDS011;1691;52.486;13.374;2023-04-20T08:19:59;18.57;;;13.10;;
3355;SDS011;1691;52.486;13.374;2023-04-20T08:22:26;18.10;;;13.77;;
3355;SDS011;1691;52.486;13.374;2023-04-20T08:24:55;14.03;;;12.70;;
3355;SDS011;1691;52.486;13.374;2023-04-20T08:27:23;14.10;;;12.77;;
3355;SDS011;1691;52.486;13.374;2023-04-20T08:29:51;14.17;;;12.87;;
3355;SDS011;1691;52.486;13.374;2023-04-20T08:32:18;16.10;;;12.97;;
3355;SDS011;1691;52.486;13.374;2023-04-20T08:34:48;13.97;;;11.70;;
3355;SDS011;1691;52.486;13.374;2023-04-20T08:37:15;16.40;;;12.67;;
3355;SDS011;1691;52.486;13.374;2023-04-20T08:39:42;15.30;;;13.20;;
3355;SDS011;1691;52.486;13.374;2023-04-20T08:42:09;15.60;;;13.50;;
3355;SDS011;1691;52.486;13.374;2023-04-20T08:44:36;15.77;;;14.13;;
3355;SDS011;1691;52.486;13.374;2023-04-20T08:47:03;19.10;;;14.63;;
3355;SDS011;1691;52.486;13.374;2023-04-20T08:49:31;14.83;;;13.33;;
3355;SDS011;1691;52.486;13.374;2023-04-20T08:51:59;15.50;;;13.87;;
3355;SDS011;1691;52.486;13.374;2023-04-20T08:54:26;19.40;;;15.50;;
3355;SDS011;1691;52.486;13.374;2023-04-20T08:56:53;15.97;;;14.10;;
3355;SDS011;1691;52.486;13.374;2023-04-20T08:59:20;21.10;;;15.50;;
3355;SDS011;1691;52.486;13.374;2023-04-20T09:01:47;27.30;;;13.83;;
3355;SDS011;1691;52.486;13.374;2023-04-20T09:06:52;20.87;;;16.23;;
3355;SDS011;1691;52.486;13.374;2023-04-20T09:09:22;21.20;;;15.70;;
3355;SDS011;1691;52.486;13.374;2023-04-20T09:12:03;21.07;;;16.07;;
3355;SDS011;1691;52.486;13.374;2023-04-20T09:14:43;24.10;;;17.20;;
3355;SDS011;1691;52.486;13.374;2023-04-20T09:17:13;23.97;;;17.40;;
3355;SDS011;1691;52.486;13.374;2023-04-20T09:19:43;22.30;;;17.57;;
3355;SDS011;1691;52.486;13.374;2023-04-20T09:22:11;25.17;;;17.87;;
3355;SDS011;1691;52.486;13.374;2023-04-20T09:24:38;22.73;;;16.90;;
3355;SDS011;1691;52.486;13.374;2023-04-20T09:27:15;26.77;;;16.03;;
3355;SDS011;1691;52.486;13.374;2023-04-20T09:29:54;21.67;;;17.23;;
3355;SDS011;1691;52.486;13.374;2023-04-20T09:32:26;22.47;;;17.70;;
3355;SDS011;1691;52.486;13.374;2023-04-20T09:34:54;22.00;;;16.80;;
3355;SDS011;1691;52.486;13.374;2023-04-20T09:37:22;19.90;;;16.70;;
3355;SDS011;1691;52.486;13.374;2023-04-20T09:39:49;20.67;;;14.80;;
3355;SDS011;1691;52.486;13.374;2023-04-20T09:42:16;19.20;;;14.37;;
3355;SDS011;1691;52.486;13.374;2023-04-20T09:44:43;18.33;;;15.33;;
3355;SDS011;1691;52.486;13.374;2023-04-20T09:47:13;19.23;;;14.70;;
3355;SDS011;1691;52.486;13.374;2023-04-20T09:49:45;22.17;;;15.47;;
3355;SDS011;1691;52.486;13.374;2023-04-20T09:52:16;17.90;;;15.00;;
3355;SDS011;1691;52.486;13.374;2023-04-20T09:54:44;16.73;;;13.30;;
3355;SDS011;1691;52.486;13.374;2023-04-20T09:57:11;15.60;;;14.00;;
3355;SDS011;1691;52.486;13.374;2023-04-20T09:59:42;14.87;;;13.43;;
3355;SDS011;1691;52.486;13.374;2023-04-20T10:02:12;14.00;;;12.60;;
3355;SDS011;1691;52.486;13.374;2023-04-20T10:04:53;13.33;;;11.93;;
3355;SDS011;1691;52.486;13.374;2023-04-20T10:07:24;15.93;;;12.13;;
3355;SDS011;1691;52.486;13.374;2023-04-20T10:10:03;14.00;;;12.10;;
3355;SDS011;1691;52.486;13.374;2023-04-20T10:12:59;16.13;;;14.43;;
3355;SDS011;1691;52.486;13.374;2023-04-20T10:15:36;13.40;;;12.07;;
3355;SDS011;1691;52.486;13.374;2023-04-20T10:18:14;14.10;;;11.13;;
3355;SDS011;1691;52.486;13.374;2023-04-20T10:20:49;14.20;;;12.00;;
3355;SDS011;1691;52.486;13.374;2023-04-20T10:23:17;12.40;;;11.20;;
3355;SDS011;1691;52.486;13.374;2023-04-20T10:25:55;10.87;;;9.97;;
3355;SDS011;1691;52.486;13.374;2023-04-20T10:28:24;11.50;;;10.40;;
3355;SDS011;1691;52.486;13.374;2023-04-20T10:30:51;12.00;;;10.90;;
3355;SDS011;1691;52.486;13.374;2023-04-20T10:33:20;10.63;;;9.73;;
3355;SDS011;1691;52.486;13.374;2023-04-20T10:35:49;11.60;;;10.70;;
3355;SDS011;1691;52.486;13.374;2023-04-20T10:38:30;11.67;;;10.57;;
3355;SDS011;1691;52.486;13.374;2023-04-20T10:41:10;10.77;;;9.50;;
3355;SDS011;1691;52.486;13.374;2023-04-20T10:43:38;13.30;;;11.23;;
3355;SDS011;1691;52.486;13.374;2023-04-20T10:46:12;12.00;;;10.90;;
3355;SDS011;1691;52.486;13.374;2023-04-20T10:48:56;12.30;;;10.83;;
3355;SDS011;1691;52.486;13.374;2023-04-20T10:51:28;11.77;;;10.60;;
3355;SDS011;1691;52.486;13.374;2023-04-20T10:53:56;10.27;;;9.53;;
3355;SDS011;1691;52.486;13.374;2023-04-20T10:56:39;11.33;;;10.33;;
3355;SDS011;1691;52.486;13.374;2023-04-20T10:59:13;12.83;;;11.63;;
3355;SDS011;1691;52.486;13.374;2023-04-20T11:01:42;11.50;;;10.50;;
3355;SDS011;1691;52.486;13.374;2023-04-20T11:04:10;12.03;;;10.93;;
3355;SDS011;1691;52.486;13.374;2023-04-20T11:06:42;11.90;;;10.70;;
3355;SDS011;1691;52.486;13.374;2023-04-20T11:09:15;12.57;;;11.37;;
3355;SDS011;1691;52.486;13.374;2023-04-20T11:11:58;13.53;;;12.10;;
3355;SDS011;1691;52.486;13.374;2023-04-20T11:14:32;12.57;;;11.37;;
3355;SDS011;1691;52.486;13.374;2023-04-20T11:17:04;14.20;;;12.80;;
3355;SDS011;1691;52.486;13.374;2023-04-20T11:19:33;13.03;;;11.60;;
3355;SDS011;1691;52.486;13.374;2023-04-20T11:22:01;14.43;;;13.17;;
3355;SDS011;1691;52.486;13.374;2023-04-20T11:24:32;14.53;;;13.10;;
3355;SDS011;1691;52.486;13.374;2023-04-20T11:27:00;14.00;;;12.57;;
3355;SDS011;1691;52.486;13.374;2023-04-20T11:29:30;14.67;;;12.63;;
3355;SDS011;1691;52.486;13.374;2023-04-20T11:32:07;18.17;;;13.60;;
3355;SDS011;1691;52.486;13.374;2023-04-20T11:34:38;13.80;;;12.60;;
3355;SDS011;1691;52.486;13.374;2023-04-20T11:37:09;12.63;;;11.53;;
3355;SDS011;1691;52.486;13.374;2023-04-20T11:39:38;14.07;;;12.70;;
3355;SDS011;1691;52.486;13.374;2023-04-20T11:42:07;14.53;;;13.23;;
3355;SDS011;1691;52.486;13.374;2023-04-20T11:44:34;12.50;;;11.30;;
3355;SDS011;1691;52.486;13.374;2023-04-20T11:47:02;19.97;;;15.77;;
3355;SDS011;1691;52.486;13.374;2023-04-20T11:49:29;13.97;;;12.57;;
3355;SDS011;1691;52.486;13.374;2023-04-20T11:51:56;13.60;;;12.40;;
3355;SDS011;1691;52.486;13.374;2023-04-20T11:54:23;14.30;;;11.40;;
3355;SDS011;1691;52.486;13.374;2023-04-20T11:56:52;13.63;;;12.33;;
3355;SDS011;1691;52.486;13.374;2023-04-20T11:59:19;14.03;;;12.70;;
3355;SDS011;1691;52.486;13.374;2023-04-20T12:01:47;12.97;;;11.87;;
3355;SDS011;1691;52.486;13.374;2023-04-20T12:04:14;16.50;;;12.47;;
3355;SDS011;1691;52.486;13.374;2023-04-20T12:06:42;13.93;;;12.57;;
3355;SDS011;1691;52.486;13.374;2023-04-20T12:09:09;15.80;;;13.00;;
3355;SDS011;1691;52.486;13.374;2023-04-20T12:11:36;13.63;;;12.07;;
3355;SDS011;1691;52.486;13.374;2023-04-20T12:14:03;12.07;;;10.93;;
3355;SDS011;1691;52.486;13.374;2023-04-20T12:16:30;15.00;;;13.50;;
3355;SDS011;1691;52.486;13.374;2023-04-20T12:18:57;20.37;;;12.53;;
3355;SDS011;1691;52.486;13.374;2023-04-20T12:21:24;14.03;;;11.77;;
3355;SDS011;1691;52.486;13.374;2023-04-20T12:23:52;13.30;;;12.00;;
3355;SDS011;1691;52.486;13.374;2023-04-20T12:26:19;13.00;;;11.70;;
3355;SDS011;1691;52.486;13.374;2023-04-20T12:28:50;13.07;;;11.77;;
3355;SDS011;1691;52.486;13.374;2023-04-20T12:31:17;22.87;;;13.50;;
3355;SDS011;1691;52.486;13.374;2023-04-20T12:33:45;13.03;;;11.73;;
3355;SDS011;1691;52.486;13.374;2023-04-20T12:36:12;21.70;;;13.40;;
3355;SDS011;1691;52.486;13.374;2023-04-20T12:38:38;13.33;;;12.10;;
3355;SDS011;1691;52.486;13.374;2023-04-20T12:41:05;13.03;;;11.60;;
3355;SDS011;1691;52.486;13.374;2023-04-20T12:43:33;13.10;;;11.53;;
3355;SDS011;1691;52.486;13.374;2023-04-20T12:46:00;16.37;;;11.97;;
3355;SDS011;1691;52.486;13.374;2023-04-20T12:48:27;12.50;;;11.20;;
3355;SDS011;1691;52.486;13.374;2023-04-20T12:50:54;12.47;;;11.40;;
3355;SDS011;1691;52.486;13.374;2023-04-20T12:53:21;13.30;;;11.40;;
3355;SDS011;1691;52.486;13.374;2023-04-20T12:55:48;13.20;;;11.90;;
3355;SDS011;1691;52.486;13.374;2023-04-20T12:58:22;13.43;;;11.97;;
3355;SDS011;1691;52.486;13.374;2023-04-20T13:00:50;19.27;;;11.93;;
3355;SDS011;1691;52.486;13.374;2023-04-20T13:03:17;17.67;;;12.53;;
3355;SDS011;1691;52.486;13.374;2023-04-20T13:05:44;12.63;;;11.40;;
3355;SDS011;1691;52.486;13.374;2023-04-20T13:08:12;13.83;;;12.63;;
3355;SDS011;1691;52.486;13.374;2023-04-20T13:10:39;13.93;;;12.50;;
3355;SDS011;1691;52.486;13.374;2023-04-20T13:13:09;15.23;;;12.60;;
3355;SDS011;1691;52.486;13.374;2023-04-20T13:15:36;13.93;;;12.50;;
3355;SDS011;1691;52.486;13.374;2023-04-20T13:18:05;15.57;;;13.27;;
3355;SDS011;1691;52.486;13.374;2023-04-20T13:20:32;16.43;;;12.93;;
3355;SDS011;1691;52.486;13.374;2023-04-20T13:22:59;14.50;;;12.70;;
3355;SDS011;1691;52.486;13.374;2023-04-20T13:25:27;14.13;;;12.00;;
3355;SDS011;1691;52.486;13.374;2023-04-20T13:27:58;15.80;;;11.67;;
3355;SDS011;1691;52.486;13.374;2023-04-20T13:30:27;13.40;;;11.00;;
3355;SDS011;1691;52.486;13.374;2023-04-20T13:32:55;14.87;;;12.90;;
3355;SDS011;1691;52.486;13.374;2023-04-20T13:35:22;13.83;;;12.23;;
3355;SDS011;1691;52.486;13.374;2023-04-20T13:37:49;14.73;;;12.70;;
3355;SDS011;1691;52.486;13.374;2023-04-20T13:40:16;13.67;;;11.40;;
3355;SDS011;1691;52.486;13.374;2023-04-20T13:42:43;16.47;;;11.13;;
3355;SDS011;1691;52.486;13.374;2023-04-20T13:45:10;13.50;;;11.23;;
3355;SDS011;1691;52.486;13.374;2023-04-20T13:47:38;17.30;;;12.30;;
3355;SDS011;1691;52.486;13.374;2023-04-20T13:50:06;22.53;;;11.87;;
3355;SDS011;1691;52.486;13.374;2023-04-20T13:52:34;12.53;;;11.43;;
3355;SDS011;1691;52.486;13.374;2023-04-20T13:55:01;15.70;;;11.53;;
3355;SDS011;1691;52.486;13.374;2023-04-20T13:57:29;14.33;;;12.47;;
3355;SDS011;1691;52.486;13.374;2023-04-20T13:59:56;14.73;;;11.93;;
3355;SDS011;1691;52.486;13.374;2023-04-20T14:02:26;15.37;;;11.37;;
3355;SDS011;1691;52.486;13.374;2023-04-20T14:04:54;13.30;;;10.93;;
3355;SDS011;1691;52.486;13.374;2023-04-20T14:07:22;18.57;;;11.40;;
3355;SDS011;1691;52.486;13.374;2023-04-20T14:09:49;12.63;;;9.97;;
3355;SDS011;1691;52.486;13.374;2023-04-20T14:12:18;13.83;;;8.97;;
3355;SDS011;1691;52.486;13.374;2023-04-20T14:14:45;16.03;;;9.80;;
3355;SDS011;1691;52.486;13.374;2023-04-20T14:17:12;16.97;;;10.20;;
3355;SDS011;1691;52.486;13.374;2023-04-20T14:19:39;11.17;;;9.97;;
3355;SDS011;1691;52.486;13.374;2023-04-20T14:22:06;11.43;;;8.87;;
3355;SDS011;1691;52.486;13.374;2023-04-20T14:24:33;16.47;;;10.57;;
3355;SDS011;1691;52.486;13.374;2023-04-20T14:27:00;11.63;;;10.53;;
3355;SDS011;1691;52.486;13.374;2023-04-20T14:29:27;13.47;;;10.03;;
3355;SDS011;1691;52.486;13.374;2023-04-20T14:31:54;10.70;;;9.73;;
3355;SDS011;1691;52.486;13.374;2023-04-20T14:34:21;10.93;;;10.03;;
3355;SDS011;1691;52.486;13.374;2023-04-20T14:36:48;11.93;;;10.50;;
3355;SDS011;1691;52.486;13.374;2023-04-20T14:39:17;21.80;;;10.90;;
3355;SDS011;1691;52.486;13.374;2023-04-20T14:41:48;19.57;;;9.50;;
3355;SDS011;1691;52.486;13.374;2023-04-20T14:44:15;10.93;;;9.77;;
3355;SDS011;1691;52.486;13.374;2023-04-20T14:46:43;10.60;;;9.03;;